createdAt,value
2023-10-20T00:46:11.349Z,82.47
2023-10-20T00:48:39.894Z,83.63
2023-10-20T00:51:08.767Z,83.90
2023-10-20T00:53:38.123Z,83.47
2023-10-20T00:56:07.541Z,83.22
2023-10-20T00:58:35.924Z,82.95
2023-10-20T01:01:06.142Z,83.57
2023-10-20T01:03:37.136Z,83.37
2023-10-20T01:06:06.364Z,82.65
2023-10-20T01:08:35.514Z,82.39
2023-10-20T01:11:16.400Z,82.61
2023-10-20T01:13:44.146Z,82.86
2023-10-20T01:16:12.099Z,83.39
2023-10-20T01:18:41.576Z,83.50
2023-10-20T01:21:09.410Z,83.46
2023-10-20T01:23:39.088Z,84.14
2023-10-20T01:26:08.968Z,83.80
2023-10-20T01:28:38.192Z,83.17
2023-10-20T01:31:06.073Z,83.24
2023-10-20T01:33:33.977Z,82.99
2023-10-20T01:36:02.104Z,82.88
2023-10-20T01:38:30.141Z,82.48
2023-10-20T01:40:57.988Z,82.33
2023-10-20T01:43:27.238Z,82.18
2023-10-20T01:45:55.103Z,82.45
2023-10-20T01:48:22.977Z,83.31
2023-10-20T01:50:51.051Z,83.33
2023-10-20T01:53:19.048Z,83.88
2023-10-20T01:55:50.907Z,83.72
2023-10-20T01:58:19.712Z,83.94
2023-10-20T02:00:52.144Z,84.32
2023-10-20T02:03:21.222Z,84.78
2023-10-20T02:05:49.500Z,85.66
2023-10-20T02:08:18.022Z,85.36
2023-10-20T02:10:46.654Z,85.70
2023-10-20T02:13:14.690Z,86.60
2023-10-20T02:15:48.036Z,85.91
2023-10-20T02:18:18.642Z,86.02
2023-10-20T02:20:46.813Z,86.45
2023-10-20T02:23:14.518Z,86.17
2023-10-20T02:25:42.186Z,85.84
2023-10-20T02:28:09.817Z,85.21
2023-10-20T02:30:37.508Z,85.78
2023-10-20T02:33:05.677Z,85.48
2023-10-20T02:35:34.764Z,86.13
2023-10-20T02:38:02.547Z,86.45
2023-10-20T02:40:30.223Z,85.70
2023-10-20T02:42:57.912Z,85.62
2023-10-20T02:45:25.625Z,86.86
2023-10-20T02:47:53.631Z,86.42
2023-10-20T02:50:21.614Z,85.26
2023-10-20T02:52:50.820Z,85.59
2023-10-20T02:55:18.855Z,85.82
2023-10-20T02:57:46.498Z,85.14
2023-10-20T03:00:19.215Z,85.27
2023-10-20T03:02:49.719Z,85.74
2023-10-20T03:05:17.977Z,85.58
2023-10-20T03:07:46.940Z,86.19
2023-10-20T03:10:17.345Z,85.32
2023-10-20T03:12:45.011Z,86.18
2023-10-20T03:15:12.956Z,84.75
2023-10-20T03:17:40.682Z,85.68
2023-10-20T03:20:10.546Z,84.58
2023-10-20T03:22:38.602Z,85.98
2023-10-20T03:25:08.938Z,85.87
2023-10-20T03:27:39.055Z,86.24
2023-10-20T03:30:08.157Z,86.66
2023-10-20T03:32:36.375Z,87.77
2023-10-20T03:35:04.558Z,87.25
2023-10-20T03:37:32.671Z,87.90
2023-10-20T03:40:00.327Z,87.74
2023-10-20T03:42:28.004Z,86.82
2023-10-20T03:44:57.602Z,87.53
2023-10-20T03:47:29.036Z,86.63
2023-10-20T03:49:59.078Z,86.91
2023-10-20T03:52:29.443Z,86.72
2023-10-20T03:54:57.267Z,87.52
2023-10-20T03:57:25.020Z,87.06
2023-10-20T03:59:52.773Z,86.64
2023-10-20T04:02:21.806Z,85.93
2023-10-20T04:04:49.455Z,85.67
2023-10-20T04:07:17.171Z,86.09
2023-10-20T04:09:45.123Z,85.11
2023-10-20T04:12:12.798Z,85.77
2023-10-20T04:14:40.500Z,85.83
2023-10-20T04:17:08.296Z,85.99
2023-10-20T04:19:37.375Z,85.44
2023-10-20T04:22:13.724Z,84.73
2023-10-20T04:24:42.397Z,85.48
2023-10-20T04:27:21.714Z,85.01
2023-10-20T04:30:09.867Z,85.67
2023-10-20T04:32:55.137Z,86.22
2023-10-20T04:35:40.881Z,85.66
2023-10-20T04:38:26.301Z,85.40
2023-10-20T04:41:11.162Z,85.38
2023-10-20T04:43:42.996Z,85.29
2023-10-20T04:46:28.194Z,85.67
2023-10-20T04:49:28.083Z,85.42
2023-10-20T04:52:16.787Z,86.80
2023-10-20T04:54:52.017Z,84.98
2023-10-20T04:57:36.576Z,86.12
2023-10-20T05:00:18.425Z,86.45
2023-10-20T05:02:58.204Z,86.93
2023-10-20T05:05:34.600Z,86.68
2023-10-20T05:08:06.705Z,86.63
2023-10-20T05:10:34.802Z,86.23
2023-10-20T05:13:02.388Z,86.89
2023-10-20T05:15:32.780Z,86.70
2023-10-20T05:18:00.943Z,87.63
2023-10-20T05:20:28.791Z,86.65
2023-10-20T05:22:57.572Z,86.60
2023-10-20T05:25:26.689Z,87.04
2023-10-20T05:27:54.531Z,87.26
2023-10-20T05:30:22.162Z,88.73
2023-10-20T05:32:51.113Z,89.68
2023-10-20T05:35:18.897Z,89.54
2023-10-20T05:37:46.558Z,89.54
2023-10-20T05:40:14.601Z,89.98
2023-10-20T05:42:43.593Z,90.24
2023-10-20T05:45:18.280Z,90.54
2023-10-20T05:47:46.576Z,90.06
2023-10-20T05:50:14.670Z,90.21
2023-10-20T05:52:42.445Z,89.40
2023-10-20T05:55:12.131Z,88.66
2023-10-20T06:01:48.091Z,89.03
2023-10-20T06:04:45.576Z,89.92
2023-10-20T06:07:20.737Z,89.63
2023-10-20T06:10:25.319Z,89.68
2023-10-20T06:13:05.124Z,90.55
2023-10-20T08:01:47.947Z,89.92
2023-10-20T08:04:15.710Z,90.23
2023-10-20T08:06:43.485Z,90.64
2023-10-20T08:09:13.026Z,90.75
2023-10-20T08:11:43.071Z,90.24
2023-10-20T08:14:10.983Z,89.80
2023-10-20T08:16:39.442Z,89.49
2023-10-20T08:19:08.627Z,88.73
2023-10-20T08:21:36.612Z,89.26
2023-10-20T08:24:06.076Z,89.91
2023-10-20T08:26:34.025Z,89.68
2023-10-20T08:29:02.268Z,89.75
2023-10-20T08:31:29.996Z,88.22
2023-10-20T08:33:58.476Z,89.60
2023-10-20T08:36:27.664Z,89.54
2023-10-20T08:38:55.416Z,89.33
2023-10-20T08:41:24.950Z,89.78
2023-10-20T08:43:53.390Z,90.00
2023-10-20T08:46:23.970Z,88.71
2023-10-20T08:48:52.059Z,90.03
2023-10-20T08:51:20.293Z,89.20
2023-10-20T08:53:50.021Z,88.88
2023-10-20T08:56:18.064Z,88.26
2023-10-20T08:58:47.527Z,88.33
2023-10-20T09:01:16.201Z,88.34
2023-10-20T09:03:46.178Z,88.84
2023-10-20T09:06:15.842Z,89.77
2023-10-20T09:08:45.193Z,88.11
2023-10-20T09:11:14.648Z,88.37
2023-10-20T09:13:44.485Z,88.51
2023-10-20T09:16:14.525Z,88.98
2023-10-20T09:18:47.712Z,88.87
2023-10-20T09:21:16.412Z,89.16
2023-10-20T09:23:55.353Z,88.54
2023-10-20T09:26:25.171Z,88.23
2023-10-20T09:28:54.915Z,88.33
2023-10-20T09:31:23.846Z,87.77
2023-10-20T09:33:52.250Z,88.43
2023-10-20T09:36:20.371Z,89.32
2023-10-20T09:38:52.511Z,89.39
2023-10-20T09:41:24.309Z,88.90
2023-10-20T09:43:54.575Z,88.54
2023-10-20T09:46:46.840Z,88.88
2023-10-20T09:49:17.430Z,88.42
2023-10-20T09:51:46.657Z,87.60
2023-10-20T09:54:15.611Z,87.45
2023-10-20T09:56:46.572Z,85.62
2023-10-20T09:59:19.563Z,85.36
2023-10-20T10:01:47.503Z,85.24
2023-10-20T10:04:15.478Z,86.07
2023-10-20T10:06:46.804Z,87.38
2023-10-20T10:09:16.306Z,86.45
2023-10-20T10:11:46.687Z,86.31
2023-10-20T10:14:21.626Z,86.29
2023-10-20T10:16:54.644Z,86.33
2023-10-20T10:19:26.406Z,85.53
2023-10-20T10:21:58.082Z,85.72
2023-10-20T10:24:26.529Z,86.83
2023-10-20T10:26:58.096Z,85.76
2023-10-20T10:29:48.289Z,85.95
2023-10-20T10:32:20.274Z,85.54
2023-10-20T10:34:50.017Z,86.66
2023-10-20T10:37:30.431Z,86.59
2023-10-20T10:40:10.077Z,85.85
2023-10-20T10:42:40.965Z,85.96
2023-10-20T10:45:24.414Z,85.03
2023-10-20T10:47:53.683Z,85.62
2023-10-20T10:50:23.378Z,86.52
2023-10-20T10:52:52.711Z,85.55
2023-10-20T10:55:21.338Z,87.48
2023-10-20T10:57:52.238Z,87.59
2023-10-20T11:00:20.626Z,86.09
2023-10-20T11:02:48.920Z,86.10
2023-10-20T11:05:17.532Z,85.53
2023-10-20T11:08:02.706Z,85.05
2023-10-20T11:10:31.986Z,85.88
2023-10-20T11:13:01.710Z,85.10
2023-10-20T11:15:30.677Z,86.52
2023-10-20T11:17:59.946Z,85.88
2023-10-20T11:20:30.797Z,85.74
2023-10-20T11:22:59.780Z,86.70
2023-10-20T11:25:27.756Z,86.08
2023-10-20T11:27:56.273Z,85.90
2023-10-20T11:30:27.528Z,86.51
2023-10-20T11:32:56.164Z,86.10
2023-10-20T11:35:25.785Z,86.33
2023-10-20T11:37:54.255Z,86.62
2023-10-20T11:40:22.310Z,87.34
2023-10-20T11:42:50.279Z,86.54
2023-10-20T11:45:18.914Z,86.92
2023-10-20T11:47:48.068Z,86.19
2023-10-20T11:50:16.774Z,86.06
2023-10-20T11:52:45.041Z,87.20
2023-10-20T11:55:13.610Z,86.37
2023-10-20T11:57:41.558Z,87.38
2023-10-20T12:00:11.068Z,87.19
2023-10-20T12:02:39.556Z,86.06
2023-10-20T12:05:09.725Z,86.42
2023-10-20T12:07:38.496Z,86.04
2023-10-20T12:10:07.570Z,85.85
2023-10-20T12:12:35.641Z,86.35
2023-10-20T12:15:04.326Z,86.26
2023-10-20T12:17:32.349Z,86.73
2023-10-20T12:20:00.039Z,87.53
2023-10-20T12:22:29.129Z,87.68
2023-10-20T12:24:57.046Z,87.40
2023-10-20T12:27:25.300Z,87.16
2023-10-20T12:29:53.080Z,86.86
2023-10-20T12:32:20.738Z,86.42
2023-10-20T12:34:48.365Z,86.49
2023-10-20T12:37:15.954Z,85.84
2023-10-20T12:39:44.828Z,86.25
2023-10-20T12:42:13.695Z,86.37
2023-10-20T12:44:41.296Z,86.47
2023-10-20T12:47:08.916Z,87.01
2023-10-20T12:49:36.557Z,86.70
2023-10-20T12:52:05.308Z,86.87
2023-10-20T12:54:33.286Z,87.10
2023-10-20T12:57:02.559Z,86.29
2023-10-20T12:59:30.766Z,86.63
2023-10-20T13:01:58.617Z,87.31
2023-10-20T13:04:26.604Z,86.84
2023-10-20T13:07:00.741Z,86.95
2023-10-20T13:09:29.054Z,87.59
2023-10-20T13:11:58.718Z,88.56
2023-10-20T13:14:28.276Z,88.14
2023-10-20T13:16:56.242Z,87.92
2023-10-20T13:19:24.184Z,87.72
2023-10-20T13:21:51.907Z,87.33
2023-10-20T13:24:19.686Z,87.27
2023-10-20T13:26:47.485Z,86.26
2023-10-20T13:29:15.214Z,85.21
2023-10-20T13:31:44.480Z,86.36
2023-10-20T13:34:12.293Z,87.21
2023-10-20T13:36:40.017Z,87.65
2023-10-20T13:39:18.150Z,88.40
2023-10-20T13:41:48.650Z,88.76
2023-10-20T13:44:17.795Z,87.52
2023-10-20T13:46:47.007Z,87.07
2023-10-20T13:49:14.742Z,86.48
2023-10-20T13:51:42.488Z,85.20
2023-10-20T13:54:10.364Z,86.23
2023-10-20T13:56:38.152Z,84.82
2023-10-20T13:59:06.925Z,83.48
2023-10-20T14:01:34.902Z,84.74
2023-10-20T14:04:06.216Z,85.82
2023-10-20T14:06:34.254Z,86.92
2023-10-20T14:09:02.413Z,86.75
2023-10-20T14:11:30.450Z,86.39
2023-10-20T14:13:58.207Z,86.47
2023-10-20T14:16:26.166Z,86.45
2023-10-20T14:18:53.922Z,85.58
2023-10-20T14:21:24.450Z,84.72
2023-10-20T14:23:52.287Z,85.70
2023-10-20T14:26:20.237Z,86.58
2023-10-20T14:28:47.931Z,86.88
2023-10-20T14:31:15.802Z,85.51
2023-10-20T14:33:43.564Z,84.87
2023-10-20T14:36:14.732Z,84.75
2023-10-20T14:38:43.913Z,84.76
2023-10-20T14:41:11.834Z,84.30
2023-10-20T14:43:40.719Z,84.21
2023-10-20T14:46:10.133Z,84.68
2023-10-20T14:48:38.467Z,85.14
2023-10-20T14:51:11.784Z,84.92
2023-10-20T14:53:39.770Z,85.95
2023-10-20T14:56:16.236Z,85.58
2023-10-20T14:58:44.072Z,84.98
2023-10-20T15:01:13.165Z,85.17
2023-10-20T15:03:41.152Z,85.25
2023-10-20T15:06:09.041Z,86.14
2023-10-20T15:08:37.098Z,84.97
2023-10-20T15:11:10.010Z,85.43
2023-10-20T15:13:37.701Z,89.77
2023-10-20T15:16:07.018Z,90.79
2023-10-20T15:18:35.185Z,89.76
2023-10-20T15:21:05.751Z,91.39
2023-10-20T15:23:33.782Z,91.04
2023-10-20T15:26:04.752Z,91.19
2023-10-20T15:28:34.014Z,92.28
2023-10-20T15:31:08.523Z,91.76
2023-10-20T15:33:37.339Z,91.25
2023-10-20T15:36:06.776Z,90.85
2023-10-20T15:38:34.942Z,92.16
2023-10-20T15:41:02.840Z,93.17
2023-10-20T15:43:30.639Z,93.76
2023-10-20T15:46:00.866Z,93.42
2023-10-20T15:48:29.059Z,92.03
2023-10-20T15:50:57.010Z,92.49
2023-10-20T15:53:25.486Z,91.78
2023-10-20T15:55:55.825Z,90.75
2023-10-20T15:58:23.561Z,91.05
2023-10-20T16:00:51.395Z,91.69
2023-10-20T16:03:21.018Z,92.26
2023-10-20T16:05:48.962Z,92.38
2023-10-20T16:08:16.703Z,92.53
2023-10-20T16:10:44.636Z,91.89
2023-10-20T16:13:12.346Z,91.48
2023-10-20T16:15:40.159Z,91.48
2023-10-20T16:18:08.286Z,90.15
2023-10-20T16:20:38.209Z,89.83
2023-10-20T16:23:06.157Z,90.42
2023-10-20T16:25:36.550Z,90.41
2023-10-20T16:28:04.939Z,91.00
2023-10-20T16:30:33.112Z,91.26
2023-10-20T16:33:01.605Z,91.62
2023-10-20T16:35:33.884Z,91.91
2023-10-20T16:38:03.682Z,90.21
2023-10-20T16:40:32.589Z,90.37
2023-10-20T16:43:00.567Z,88.81
2023-10-20T16:45:28.512Z,90.61
2023-10-20T16:47:56.405Z,90.79
2023-10-20T16:50:24.509Z,89.72
2023-10-20T16:52:52.933Z,90.12
2023-10-20T16:55:22.318Z,90.06
2023-10-20T16:57:50.242Z,89.20
2023-10-20T17:00:18.729Z,87.98
2023-10-20T17:02:48.377Z,87.41
2023-10-20T17:05:16.315Z,87.40
2023-10-20T17:07:44.046Z,87.04
2023-10-20T17:10:13.691Z,86.94
2023-10-20T17:12:43.038Z,87.97
2023-10-20T17:15:10.836Z,87.22
2023-10-20T17:17:38.677Z,88.50
2023-10-20T17:20:07.341Z,88.38
2023-10-20T17:22:35.304Z,87.09
2023-10-20T17:25:03.561Z,87.06
2023-10-20T17:27:31.397Z,87.56
2023-10-20T17:30:00.728Z,86.57
2023-10-20T17:32:28.614Z,86.99
2023-10-20T17:34:56.430Z,87.17
2023-10-20T17:37:24.043Z,87.25
2023-10-20T17:39:53.293Z,87.47
2023-10-20T17:42:21.380Z,86.87
2023-10-20T17:44:49.040Z,87.73
2023-10-20T17:47:18.026Z,87.27
2023-10-20T17:49:45.600Z,86.33
2023-10-20T17:52:13.189Z,86.92
2023-10-20T17:54:40.824Z,86.84
2023-10-20T17:57:08.485Z,87.07
2023-10-20T17:59:36.316Z,86.83
2023-10-20T18:02:04.099Z,87.64
2023-10-20T18:04:33.199Z,88.00
2023-10-20T18:07:00.830Z,87.31
2023-10-20T18:09:28.441Z,87.90
2023-10-20T18:11:56.411Z,88.07
2023-10-20T18:14:23.959Z,87.72
2023-10-20T18:16:51.987Z,87.76
2023-10-20T18:19:19.679Z,86.98
2023-10-20T18:21:48.610Z,86.69
2023-10-20T18:24:16.166Z,86.37
2023-10-20T18:26:43.786Z,86.24
2023-10-20T18:29:11.550Z,86.68
2023-10-20T18:31:39.202Z,87.07
2023-10-20T18:34:07.277Z,86.52
2023-10-20T18:36:34.876Z,85.90
2023-10-20T18:39:04.460Z,86.64
2023-10-20T18:41:32.767Z,87.37
2023-10-20T18:44:01.491Z,87.30
2023-10-20T18:46:29.076Z,87.12
2023-10-20T18:48:56.640Z,87.06
2023-10-20T18:51:24.255Z,87.53
2023-10-20T18:53:53.171Z,87.36
2023-10-20T18:56:22.846Z,86.82
2023-10-20T18:58:50.485Z,86.90
2023-10-20T19:01:18.089Z,86.55
2023-10-20T19:03:45.875Z,86.13
2023-10-20T19:06:14.134Z,86.25
2023-10-20T19:08:42.123Z,86.12
2023-10-20T19:11:11.518Z,86.26
2023-10-20T19:13:40.816Z,86.22
2023-10-20T19:16:08.461Z,86.10
2023-10-20T19:18:36.567Z,86.45
2023-10-20T19:21:06.044Z,86.92
2023-10-20T19:23:34.081Z,86.43
2023-10-20T19:26:02.280Z,86.68
2023-10-20T19:28:30.698Z,86.57
2023-10-20T19:31:01.276Z,85.80
2023-10-20T19:33:29.439Z,86.41
2023-10-20T19:35:57.586Z,86.59
2023-10-20T19:38:25.649Z,86.40
2023-10-20T19:40:53.913Z,86.48
2023-10-20T19:43:21.760Z,86.76
2023-10-20T19:45:49.428Z,86.55
2023-10-20T19:48:18.511Z,86.34
2023-10-20T19:50:46.487Z,86.37
2023-10-20T19:53:14.185Z,86.10
2023-10-20T19:55:43.901Z,86.19
2023-10-20T19:58:12.083Z,86.35
2023-10-20T20:00:40.661Z,86.49
2023-10-20T20:03:08.860Z,86.33
2023-10-20T20:05:38.341Z,86.41
2023-10-20T20:08:06.157Z,85.72
2023-10-20T20:10:33.965Z,85.51
2023-10-20T20:13:01.655Z,85.53
2023-10-20T20:15:29.406Z,85.78
2023-10-20T20:17:57.742Z,85.66
2023-10-20T20:20:25.559Z,86.09
2023-10-20T20:22:54.813Z,86.61
2023-10-20T20:25:22.462Z,86.39
2023-10-20T20:27:50.329Z,86.24
2023-10-20T20:30:18.210Z,85.46
2023-10-20T20:32:46.120Z,85.69
2023-10-20T20:35:13.857Z,85.65
2023-10-20T20:37:41.697Z,85.27
2023-10-20T20:40:11.845Z,85.39
2023-10-20T20:42:40.974Z,85.81
2023-10-20T20:45:10.467Z,85.78
2023-10-20T20:47:38.274Z,85.65
2023-10-20T20:50:10.671Z,85.42
2023-10-20T20:52:41.065Z,84.95
2023-10-20T20:55:11.900Z,84.55
2023-10-20T20:57:39.620Z,84.73
2023-10-20T21:00:08.606Z,85.02
2023-10-20T21:02:36.477Z,84.95
2023-10-20T21:05:04.620Z,84.71
2023-10-20T21:07:32.330Z,83.75
2023-10-20T21:10:00.062Z,83.94
2023-10-20T21:12:30.580Z,84.04
2023-10-20T21:14:58.696Z,84.22
2023-10-20T21:17:26.600Z,84.36
2023-10-20T21:19:54.308Z,84.23
2023-10-20T21:22:22.145Z,83.83
2023-10-20T21:24:49.799Z,84.05
2023-10-20T21:27:17.485Z,83.76
2023-10-20T21:29:46.550Z,83.78
2023-10-20T21:32:14.410Z,84.42
2023-10-20T21:34:42.165Z,84.77
2023-10-20T21:37:09.998Z,84.10
2023-10-20T21:39:37.761Z,83.81
2023-10-20T21:42:06.426Z,84.68
2023-10-20T21:44:34.904Z,84.17
2023-10-20T21:47:04.277Z,84.46
2023-10-20T21:49:32.013Z,83.61
2023-10-20T21:52:01.801Z,83.63
2023-10-20T21:54:29.525Z,84.69
2023-10-20T21:56:57.408Z,83.44
2023-10-20T21:59:25.289Z,84.20
2023-10-20T22:02:08.384Z,83.95
2023-10-20T22:04:39.095Z,83.68
2023-10-20T22:07:06.928Z,83.96
2023-10-20T22:09:50.037Z,84.01
2023-10-20T22:12:20.428Z,83.78
2023-10-20T22:14:48.156Z,83.31
2023-10-20T22:17:16.063Z,83.91
2023-10-20T22:19:45.348Z,83.83
2023-10-20T22:22:13.264Z,83.63
2023-10-20T22:24:41.419Z,83.79
2023-10-20T22:27:09.401Z,83.28
2023-10-20T22:29:37.810Z,83.08
2023-10-20T22:32:06.934Z,83.29
2023-10-20T22:34:35.050Z,82.27
2023-10-20T22:37:04.695Z,83.00
2023-10-20T22:39:32.436Z,83.46
2023-10-20T22:42:01.168Z,83.83
2023-10-20T22:44:29.724Z,83.48
2023-10-20T22:46:57.589Z,83.69
2023-10-20T22:49:25.823Z,82.83
2023-10-20T22:51:53.630Z,82.90
2023-10-20T22:54:22.977Z,83.50
2023-10-20T22:56:50.882Z,83.15
2023-10-20T22:59:18.707Z,82.61
2023-10-20T23:01:46.613Z,82.83
2023-10-20T23:04:17.169Z,82.84
2023-10-20T23:06:46.599Z,83.01
2023-10-20T23:09:15.039Z,82.51
2023-10-20T23:11:44.985Z,82.58
2023-10-20T23:14:13.769Z,83.26
2023-10-20T23:16:42.003Z,83.27
2023-10-20T23:19:10.103Z,82.60
2023-10-20T23:21:38.031Z,82.71
2023-10-20T23:24:11.680Z,83.35
2023-10-20T23:26:43.528Z,83.32
2023-10-20T23:29:16.666Z,83.48
2023-10-20T23:32:23.845Z,83.46
2023-10-20T23:34:54.914Z,82.94
2023-10-20T23:37:32.000Z,83.03
2023-10-20T23:40:03.248Z,83.13
2023-10-20T23:42:34.926Z,82.47
2023-10-20T23:45:42.608Z,82.51
2023-10-20T23:48:17.044Z,82.91
2023-10-20T23:50:49.424Z,82.82
2023-10-20T23:56:17.637Z,82.65
